createdAt,value
2022-11-07T07:53:47.196Z,6.07
2022-11-07T07:56:15.196Z,5.85
2022-11-07T07:58:42.289Z,5.20
2022-11-07T08:01:11.441Z,5.47
2022-11-07T08:03:59.693Z,5.65
2022-11-07T08:06:25.713Z,5.60
2022-11-07T08:08:52.688Z,5.22
2022-11-07T08:11:19.694Z,5.70
2022-11-07T08:13:46.673Z,5.38
2022-11-07T08:16:13.723Z,5.20
2022-11-07T08:18:40.836Z,4.53
2022-11-07T08:21:08.081Z,4.68
2022-11-07T08:23:35.350Z,5.10
2022-11-07T08:26:04.630Z,5.22
2022-11-07T08:28:32.998Z,5.90
2022-11-07T08:31:08.527Z,6.28
2022-11-07T08:33:35.670Z,6.07
2022-11-07T08:36:03.505Z,6.43
2022-11-07T08:38:31.405Z,7.07
2022-11-07T08:40:58.808Z,7.03
2022-11-07T08:43:26.076Z,6.88
2022-11-07T08:45:55.303Z,7.28
2022-11-07T08:48:22.715Z,7.07
2022-11-07T08:50:53.957Z,7.55
2022-11-07T08:53:21.570Z,8.27
2022-11-07T08:55:48.736Z,8.68
2022-11-07T08:58:15.941Z,8.70
2022-11-07T09:00:43.286Z,8.27
2022-11-07T09:05:58.828Z,9.23
2022-11-07T09:08:25.971Z,9.57
2022-11-07T09:10:52.971Z,9.88
2022-11-07T09:13:20.768Z,10.10
2022-11-07T09:15:51.370Z,10.15
2022-11-07T09:18:19.904Z,10.18
2022-11-07T09:20:47.386Z,9.65
2022-11-07T09:23:14.952Z,10.02
2022-11-07T09:25:42.246Z,9.95
2022-11-07T09:28:09.568Z,9.30
2022-11-07T09:30:36.615Z,8.95
2022-11-07T09:33:04.824Z,9.70
2022-11-07T09:35:32.130Z,8.85
2022-11-07T09:37:59.221Z,9.52
2022-11-07T09:40:33.737Z,8.98
2022-11-07T09:43:14.962Z,8.48
2022-11-07T09:45:55.685Z,8.18
2022-11-07T09:48:24.250Z,8.50
2022-11-07T09:50:52.087Z,7.72
2022-11-07T09:53:25.893Z,7.97
2022-11-07T09:56:00.507Z,8.17
2022-11-07T09:58:39.800Z,8.80
2022-11-07T10:01:14.284Z,8.90
2022-11-07T10:03:52.945Z,9.18
2022-11-07T10:06:36.520Z,9.70
2022-11-07T10:09:08.840Z,10.05
2022-11-07T10:11:38.965Z,9.27
2022-11-07T10:14:17.071Z,9.63
2022-11-07T10:17:04.927Z,10.15
2022-11-07T10:19:50.501Z,13.10
2022-11-07T10:22:23.739Z,13.00
2022-11-07T10:25:05.998Z,13.05
2022-11-07T10:27:33.206Z,13.53
2022-11-07T10:30:01.367Z,15.20
2022-11-07T10:32:44.973Z,16.27
2022-11-07T10:35:15.674Z,16.83
2022-11-07T10:37:42.651Z,16.63
2022-11-07T10:40:21.481Z,16.55
2022-11-07T10:42:49.107Z,15.83
2022-11-07T10:45:17.039Z,16.20
2022-11-07T10:47:55.542Z,15.88
2022-11-07T10:50:23.463Z,16.33
2022-11-07T10:52:58.113Z,16.80
2022-11-07T10:55:25.759Z,17.27
2022-11-07T10:57:54.520Z,17.08
2022-11-07T11:00:32.718Z,16.20
2022-11-07T11:03:01.150Z,16.47
2022-11-07T11:05:42.158Z,16.67
2022-11-07T11:08:15.655Z,15.85
2022-11-07T11:10:43.014Z,16.23
2022-11-07T11:13:29.416Z,15.60
2022-11-07T11:16:05.741Z,15.35
2022-11-07T11:18:33.280Z,15.38
2022-11-07T11:21:03.476Z,16.60
2022-11-07T11:23:36.826Z,15.00
2022-11-07T11:26:07.271Z,14.88
2022-11-07T11:31:58.002Z,14.90
2022-11-07T11:34:25.008Z,14.02
2022-11-07T11:36:58.088Z,14.53
2022-11-07T11:39:28.992Z,14.30
2022-11-07T11:41:57.697Z,14.38
2022-11-07T11:44:28.505Z,14.13
2022-11-07T11:47:03.015Z,14.07
2022-11-07T11:49:33.235Z,13.80
2022-11-07T11:52:02.481Z,13.57
2022-11-07T11:54:29.514Z,13.20
2022-11-07T11:57:15.686Z,13.23
2022-11-07T11:59:42.675Z,12.73
2022-11-07T12:02:28.240Z,12.50
2022-11-07T12:04:58.554Z,12.40
2022-11-07T12:07:25.541Z,12.02
2022-11-07T12:10:11.448Z,12.00
2022-11-07T12:12:44.630Z,12.32
2022-11-07T12:15:29.074Z,11.30
2022-11-07T12:18:02.025Z,11.02
2022-11-07T12:20:49.910Z,10.98
2022-11-07T12:23:23.030Z,11.02
2022-11-07T12:25:54.503Z,10.82
2022-11-07T12:28:40.977Z,10.38
2022-11-07T12:31:08.221Z,10.40
2022-11-07T12:33:35.803Z,10.00
2022-11-07T12:36:04.559Z,10.48
2022-11-07T12:38:43.434Z,10.40
2022-11-07T12:41:17.387Z,10.05
2022-11-07T12:44:04.801Z,9.85
2022-11-07T12:46:50.862Z,9.43
2022-11-07T12:49:36.783Z,9.68
2022-11-07T12:52:22.247Z,9.50
2022-11-07T12:58:20.884Z,9.27
2022-11-07T13:00:48.823Z,9.13
2022-11-07T13:03:22.018Z,8.93
2022-11-07T13:06:08.224Z,8.50
2022-11-07T13:08:54.180Z,8.60
2022-11-07T13:11:21.174Z,8.00
2022-11-07T13:14:06.706Z,8.07
2022-11-07T13:16:37.489Z,8.07
2022-11-07T13:19:21.628Z,8.30
2022-11-07T13:21:58.412Z,7.85
2022-11-07T13:24:25.634Z,7.75
2022-11-07T13:26:53.072Z,7.95
2022-11-07T13:29:25.620Z,7.40
2022-11-07T13:31:53.969Z,7.60
2022-11-07T13:34:21.043Z,7.40
2022-11-07T13:36:49.227Z,7.50
2022-11-07T13:39:16.572Z,6.90
2022-11-07T13:41:47.002Z,7.15
2022-11-07T13:44:21.045Z,7.40
2022-11-07T13:47:46.127Z,7.40
2022-11-07T13:50:24.742Z,7.20
2022-11-07T13:53:00.568Z,6.80
2022-11-07T13:55:48.993Z,6.75
2022-11-07T13:58:17.462Z,6.90
2022-11-07T14:00:44.521Z,6.95
2022-11-07T14:03:22.991Z,6.80
2022-11-07T14:05:50.041Z,6.72
2022-11-07T14:08:26.280Z,7.05
2022-11-07T14:10:53.635Z,7.00
2022-11-07T14:13:38.333Z,6.45
2022-11-07T14:16:18.727Z,6.80
